Martin Dragovic

Olheiro - Red Bull Salzburg
6 Dez 2026
Domingo
Processo

Personalidade

Adaptabilidade (17) Ambição (12) Controvérsia (19) Lealdade (10) Pressão (20) Profissionalismo (2) Espírito Esportivo (12) Temperamento (16)

Perfil

Estilo de Treinamento Democrático
Licença Continental B
Determinação 14
Gestão de Pessoas 14
Motivação 15
Disciplina 11
Satisfação no Trabalho
61%
Fadiga
0%
Função Olheiro
Salário 79.2K p/s
Contrato 14.03.2028

Desempenho

Comportamento Bom
Eficácia do Treinamento
36%
Desenvolvimento do Jogador
30%
Prevenção de Lesões
25%
Implementação Tática
75%

Eventos Recentes

Participou de uma reunião de recrutamento agora
Participou de uma reunião de recrutamento agora
Participou de uma reunião de recrutamento agora
Avaliou um jogador agora
Avaliou um jogador agora
Avaliou um jogador agora
Avaliou um jogador 7d atrás
Avaliou um jogador 7d atrás

Monitorando agora

100
Jogador Clube Status Habilidade Confiança Observado Última observação Último voto
Bradley Khune Ajax Cape Town Ativo 127 / 136 40% 3 05.12.2026 -
Alexandr Chernikov Krasnodar Ativo 113 / 122 40% 1 05.12.2026 -
Dylan Martínez River Plate Ativo 98 / 87 40% 1 03.12.2026 -
Andrés Tovar Envigado Ativo 91 / 83 40% 1 03.12.2026 -
Jakub Stolarczyk Leicester City Ativo 143 / 139 40% 2 02.12.2026 -
Gabriel Sanchez Veracruz Ativo 111 / 127 40% 5 01.12.2026 -
Diego Mina Lugano Ativo 91 / 93 40% 1 01.12.2026 -
Pablo Lara Pumas UNAM Ativo 104 / 122 40% 1 29.11.2026 -
Arjan Malić Sivasspor Ativo 126 / 134 40% 1 29.11.2026 -
Sergio Barreto Pachuca Ativo 143 / 129 40% 1 29.11.2026 -
Pedro Henrique Shakhtar Ativo 115 / 129 40% 2 28.11.2026 -
Rahim Ibrahim Slovan Bratislava Ativo 125 / 126 40% 1 28.11.2026 -
Éderson Atalanta Ativo 160 / 151 40% 2 27.11.2026 -
Carney Chukwuemeka Borussia Dortmund Ativo 139 / 138 40% 1 27.11.2026 -
Evaristo Dieguiz Lanús Ativo 92 / 85 40% 1 26.11.2026 -
Rodrigo Parra Pumas UNAM Ativo 94 / 113 40% 1 26.11.2026 -
Juan Manuel Centurión Independiente Ativo 94 / 87 40% 1 25.11.2026 -
Mousa Kompany Mouscron Ativo 105 / 117 40% 1 25.11.2026 -
Mahamadou Doumbia Al-Ittihad Ativo 133 / 139 40% 1 23.11.2026 -
Trai Hume Sunderland Ativo 142 / 129 40% 1 23.11.2026 -
Chris Brady Chicago Fire Ativo 121 / 115 40% 4 18.11.2026 -
Jack Kortkamp Sporting Kansas City Ativo 80 / 116 40% 2 17.11.2026 -
Muhammadyusuf Sobirov Bunyodkor Ativo 80 / 106 40% 1 17.11.2026 -
Nikita Krivtsov Krasnodar Ativo 124 / 140 40% 1 16.11.2026 -
Kermit Modiba Kaizer Chiefs Ativo 82 / 100 40% 1 12.11.2026 -
Franco Capponi Aldosivi Ativo 83 / 89 40% 1 12.11.2026 -
Dinko Horkaš Al Wasl Ativo 140 / 110 40% 1 11.11.2026 -
Luka Vušković Brighton Ativo 138 / 156 40% 1 11.11.2026 -
Kornel Miściur Liverpool Ativo 96 / 107 40% 2 09.11.2026 -
Gedson Fernandes Spartak Moscow Ativo 152 / 127 40% 1 09.11.2026 -
Lukas Mai Lugano Ativo 120 / 127 40% 1 09.11.2026 -
Vanja Milinković-Savić Napoli Ativo 157 / 156 40% 1 08.11.2026 -
Stanislav Agkatsev Brentford Ativo 123 / 136 40% 4 07.11.2026 -
Jakub Badžgoň MSK Zilina Ativo 103 / 87 40% 3 03.11.2026 -
Max Kerkvliet Real Salt Lake Ativo 77 / 84 40% 1 03.11.2026 -
Mads Roerslev Southampton Ativo 137 / 114 40% 1 01.11.2026 -
Josh King Fulham Ativo 145 / 148 40% 1 01.11.2026 -
Konrad Sabitzer Mattersburg Ativo 36 / 36 92% 6 / 6m 31.10.2026 Observar
Guilherme Pires Sporting CP Ativo 103 / 88 40% 1 30.10.2026 -
Samuel Marques Grasshopper Ativo 114 / 111 40% 1 29.10.2026 -
Ayyoub Bouaddi Manchester City Ativo 125 / 139 40% 1 29.10.2026 -
Jakub Zieliński VfL Wolfsburg Ativo 82 / 110 40% 1 29.10.2026 -
Lucas Cuffia Colón Ativo 112 / 113 40% 1 29.10.2026 -
Marcello Trippel Borussia Mönchengladbach Ativo 82 / 103 40% 2 28.10.2026 -
Demián Talavera Levante Ativo 86 / 103 40% 2 28.10.2026 -
Tyrick Mitchell Crystal Palace Ativo 134 / 150 40% 1 25.10.2026 -
Albian Hajdari TSG Hoffenheim Ativo 134 / 129 40% 1 25.10.2026 -
Luka Fuster Albacete Ativo 112 / 110 40% 1 20.10.2026 -
Santino Gianoli Almirante Brown Ativo 74 / 99 40% 1 20.10.2026 -
Felipe Igón Racing Club Ativo 105 / 112 40% 1 19.10.2026 -
Yevgen Morozov Zurich Ativo 94 / 112 40% 3 18.10.2026 -
Franco Yennerich Talleres Ativo 70 / 91 40% 1 18.10.2026 -
Dejan Schlager Mattersburg Ativo 120 / 125 40% 2 16.10.2026 Mais informações
Nicolás Fernández Mercau New York City Ativo 127 / 136 40% 1 16.10.2026 -
Agustín Cortez Vélez Ativo 110 / 111 40% 1 16.10.2026 -
Sabino González Sarmiento Ativo 66 / 109 40% 1 16.10.2026 -
Facundo Mura Inter Miami CF Ativo 139 / 142 40% 1 14.10.2026 -
Samú Al-Nassr Ativo 155 / 141 40% 1 14.10.2026 -
Agustín Chávez Unión de Santa Fe Ativo 99 / 89 40% 1 13.10.2026 -
Thiago De Bellis Racing Club Ativo 95 / 117 40% 1 12.10.2026 -
Duran Ferree San Diego Football Club Ativo 94 / 89 40% 1 12.10.2026 -
Hákon Rafn Valdimarsson Brentford Ativo 128 / 133 40% 1 11.10.2026 -
Johan Manzambi Aston Villa Ativo 131 / 142 40% 2 09.10.2026 -
Rubens Dinamo Moscow Ativo 112 / 132 40% 1 09.10.2026 -
Metinho Basel Ativo 142 / 128 40% 1 08.10.2026 -
Jobe Bellingham Borussia Dortmund Ativo 140 / 151 40% 1 08.10.2026 -
Dan-Axel Zagadou VfB Stuttgart Ativo 134 / 140 40% 2 07.10.2026 -
Matt Freese New York City Ativo 112 / 117 40% 1 07.10.2026 -
David Brekalo Orlando City Ativo 138 / 123 40% 1 07.10.2026 -
Facundo Di Sibio Agropecuario Argentino Ativo 75 / 103 40% 1 07.10.2026 -
Federico Bonilla Nacional Ativo 80 / 99 40% 1 07.10.2026 -
Leon Klanac Bayern Munich Ativo 81 / 99 40% 2 06.10.2026 -
Josen Escobar America de Cali Ativo 121 / 135 40% 1 04.10.2026 -
Alexandr Siljanov Lokomotiv Moscow Ativo 146 / 141 40% 1 04.10.2026 -
Diogo Fernandes Porto Ativo 106 / 104 40% 1 01.10.2026 -
Facundo Quintana Mallorca Ativo 114 / 116 40% 1 01.10.2026 -
Simon Caillet Sion Ativo 72 / 85 40% 1 30.09.2026 -
Kilian Fischer VfL Wolfsburg Ativo 134 / 138 40% 1 30.09.2026 -
Diego Costa Krasnodar Ativo 117 / 126 40% 1 29.09.2026 -
Luke Campbell Bolton Wanderers Ativo 86 / 95 40% 1 25.09.2026 -
Ivan Giraldo Valencia Ativo 108 / 130 40% 1 24.09.2026 -
Adisa De Rosario Toronto FC Ativo 106 / 106 40% 1 24.09.2026 -
Mamour N'Diaye Crvena Zvezda Ativo 93 / 123 40% 1 21.09.2026 -
Álex Centelles Levski Ativo 132 / 126 40% 1 21.09.2026 -
Gianluca Valdiviezo Colón Ativo 85 / 112 40% 1 20.09.2026 -
Francisco Mongelos Sportivo Luqueno Ativo 96 / 104 40% 1 19.09.2026 -
Stefan Smarkalev Werder Bremen Ativo 100 / 92 40% 1 19.09.2026 -
Lisandro Musso Central Córdoba SdE Ativo 95 / 94 40% 1 18.09.2026 -
Alfonso Álvarez Ferro Carril Oeste Ativo 96 / 113 40% 1 18.09.2026 -
Íker Blanco Independiente Medellin Ativo 93 / 91 40% 1 14.09.2026 -
Tobias Jäger Portsmouth Ativo 73 / 80 40% 1 14.09.2026 -
Gustavo Mantuan Zenit Ativo 136 / 141 40% 1 13.09.2026 -
Christian Krasnodar Ativo 122 / 124 40% 1 13.09.2026 -
Lukáš Horníček Newcastle United Ativo 125 / 129 40% 9 10.09.2026 -
Jannis Bärtl Bayern Munich Ativo 76 / 94 40% 1 09.09.2026 -
Bento Al-Nassr Ativo 112 / 145 40% 1 03.09.2026 -
Manfred Fischer Austria Wien Perdido 122 / 124 48% 1 17.08.2026 -
Carlos Moreno Pachuca Perdido 140 / 144 40% 1 02.08.2026 -
Alex Kouto Horio Pisano Nagoya Grampus Ativo 111 / 107 40% 1 01.08.2026 -
Carl Rushworth Coventry City Ativo 116 / 120 40% 1 01.08.2026 -